sensor_id;sensor_type;location;lat;lon;timestamp;P1;durP1;ratioP1;P2;durP2;ratioP2
75537;SDS011;64121;48.666;8.114;2023-02-02T00:01:09;6.78;;;2.00;;
75537;SDS011;64121;48.666;8.114;2023-02-02T00:03:34;4.57;;;2.25;;
75537;SDS011;64121;48.666;8.114;2023-02-02T00:05:59;6.88;;;1.85;;
75537;SDS011;64121;48.666;8.114;2023-02-02T00:08:26;7.38;;;2.03;;
75537;SDS011;64121;48.666;8.114;2023-02-02T00:10:51;4.20;;;1.55;;
75537;SDS011;64121;48.666;8.114;2023-02-02T00:13:17;6.72;;;2.45;;
75537;SDS011;64121;48.666;8.114;2023-02-02T00:15:42;7.32;;;2.10;;
75537;SDS011;64121;48.666;8.114;2023-02-02T00:18:07;5.57;;;2.03;;
75537;SDS011;64121;48.666;8.114;2023-02-02T00:20:33;4.32;;;2.05;;
75537;SDS011;64121;48.666;8.114;2023-02-02T00:22:58;6.47;;;2.60;;
75537;SDS011;64121;48.666;8.114;2023-02-02T00:25:25;4.20;;;2.20;;
75537;SDS011;64121;48.666;8.114;2023-02-02T00:27:50;4.95;;;2.15;;
75537;SDS011;64121;48.666;8.114;2023-02-02T00:30:16;5.28;;;2.20;;
75537;SDS011;64121;48.666;8.114;2023-02-02T00:32:41;5.82;;;1.90;;
75537;SDS011;64121;48.666;8.114;2023-02-02T00:35:07;4.90;;;2.63;;
75537;SDS011;64121;48.666;8.114;2023-02-02T00:37:33;6.05;;;2.13;;
75537;SDS011;64121;48.666;8.114;2023-02-02T00:39:58;6.43;;;2.10;;
75537;SDS011;64121;48.666;8.114;2023-02-02T00:42:25;8.27;;;2.03;;
75537;SDS011;64121;48.666;8.114;2023-02-02T00:44:50;6.35;;;2.33;;
75537;SDS011;64121;48.666;8.114;2023-02-02T00:47:16;6.70;;;2.75;;
75537;SDS011;64121;48.666;8.114;2023-02-02T00:49:41;7.00;;;2.00;;
75537;SDS011;64121;48.666;8.114;2023-02-02T00:52:06;5.13;;;2.60;;
75537;SDS011;64121;48.666;8.114;2023-02-02T00:54:32;4.28;;;1.85;;
75537;SDS011;64121;48.666;8.114;2023-02-02T00:56:57;9.93;;;2.20;;
75537;SDS011;64121;48.666;8.114;2023-02-02T00:59:24;4.45;;;2.25;;
75537;SDS011;64121;48.666;8.114;2023-02-02T01:01:49;8.70;;;2.88;;
75537;SDS011;64121;48.666;8.114;2023-02-02T01:04:14;3.63;;;1.70;;
75537;SDS011;64121;48.666;8.114;2023-02-02T01:06:40;5.97;;;1.90;;
75537;SDS011;64121;48.666;8.114;2023-02-02T01:09:05;6.80;;;2.30;;
75537;SDS011;64121;48.666;8.114;2023-02-02T01:11:30;4.95;;;1.98;;
75537;SDS011;64121;48.666;8.114;2023-02-02T01:13:56;5.25;;;1.75;;
75537;SDS011;64121;48.666;8.114;2023-02-02T01:16:23;5.35;;;2.70;;
75537;SDS011;64121;48.666;8.114;2023-02-02T01:18:48;5.78;;;2.00;;
75537;SDS011;64121;48.666;8.114;2023-02-02T01:21:14;5.15;;;2.25;;
75537;SDS011;64121;48.666;8.114;2023-02-02T01:23:39;2.85;;;1.55;;
75537;SDS011;64121;48.666;8.114;2023-02-02T01:26:06;9.00;;;2.33;;
75537;SDS011;64121;48.666;8.114;2023-02-02T01:28:33;5.28;;;2.25;;
75537;SDS011;64121;48.666;8.114;2023-02-02T01:31:03;9.10;;;2.90;;
75537;SDS011;64121;48.666;8.114;2023-02-02T01:33:31;6.10;;;2.25;;
75537;SDS011;64121;48.666;8.114;2023-02-02T01:35:57;6.43;;;2.45;;
75537;SDS011;64121;48.666;8.114;2023-02-02T01:38:22;8.43;;;2.90;;
75537;SDS011;64121;48.666;8.114;2023-02-02T01:40:49;8.82;;;2.67;;
75537;SDS011;64121;48.666;8.114;2023-02-02T01:43:19;8.68;;;2.35;;
75537;SDS011;64121;48.666;8.114;2023-02-02T01:45:47;9.43;;;2.40;;
75537;SDS011;64121;48.666;8.114;2023-02-02T01:48:13;7.30;;;2.60;;
75537;SDS011;64121;48.666;8.114;2023-02-02T01:50:40;7.70;;;2.45;;
75537;SDS011;64121;48.666;8.114;2023-02-02T01:53:07;7.40;;;2.30;;
75537;SDS011;64121;48.666;8.114;2023-02-02T01:55:33;4.90;;;2.20;;
75537;SDS011;64121;48.666;8.114;2023-02-02T01:58:01;9.18;;;2.58;;
75537;SDS011;64121;48.666;8.114;2023-02-02T02:00:30;6.05;;;2.53;;
75537;SDS011;64121;48.666;8.114;2023-02-02T02:02:57;8.05;;;2.50;;
75537;SDS011;64121;48.666;8.114;2023-02-02T02:05:26;7.18;;;2.53;;
75537;SDS011;64121;48.666;8.114;2023-02-02T02:07:59;6.25;;;2.55;;
75537;SDS011;64121;48.666;8.114;2023-02-02T02:10:30;11.05;;;2.65;;
75537;SDS011;64121;48.666;8.114;2023-02-02T02:12:55;6.60;;;2.17;;
75537;SDS011;64121;48.666;8.114;2023-02-02T02:15:21;8.38;;;2.60;;
75537;SDS011;64121;48.666;8.114;2023-02-02T02:17:51;11.45;;;2.70;;
75537;SDS011;64121;48.666;8.114;2023-02-02T02:23:38;5.00;;;2.00;;
75537;SDS011;64121;48.666;8.114;2023-02-02T02:26:36;6.65;;;2.50;;
75537;SDS011;64121;48.666;8.114;2023-02-02T02:29:17;5.43;;;2.30;;
75537;SDS011;64121;48.666;8.114;2023-02-02T02:32:07;8.25;;;2.40;;
75537;SDS011;64121;48.666;8.114;2023-02-02T02:34:46;9.48;;;2.95;;
75537;SDS011;64121;48.666;8.114;2023-02-02T02:37:21;11.85;;;2.35;;
75537;SDS011;64121;48.666;8.114;2023-02-02T02:39:54;7.50;;;2.50;;
75537;SDS011;64121;48.666;8.114;2023-02-02T02:42:26;6.07;;;2.10;;
75537;SDS011;64121;48.666;8.114;2023-02-02T02:44:55;8.43;;;2.53;;
75537;SDS011;64121;48.666;8.114;2023-02-02T02:47:27;8.88;;;2.33;;
75537;SDS011;64121;48.666;8.114;2023-02-02T02:49:54;5.00;;;2.33;;
75537;SDS011;64121;48.666;8.114;2023-02-02T02:52:20;7.20;;;2.47;;
75537;SDS011;64121;48.666;8.114;2023-02-02T02:54:46;4.43;;;1.90;;
75537;SDS011;64121;48.666;8.114;2023-02-02T02:57:29;6.97;;;2.20;;
75537;SDS011;64121;48.666;8.114;2023-02-02T03:00:07;5.55;;;2.10;;
75537;SDS011;64121;48.666;8.114;2023-02-02T03:02:47;12.57;;;2.38;;
75537;SDS011;64121;48.666;8.114;2023-02-02T03:05:22;6.63;;;2.42;;
75537;SDS011;64121;48.666;8.114;2023-02-02T03:07:54;6.20;;;2.03;;
75537;SDS011;64121;48.666;8.114;2023-02-02T03:10:26;4.65;;;2.22;;
75537;SDS011;64121;48.666;8.114;2023-02-02T03:12:54;6.80;;;2.40;;
75537;SDS011;64121;48.666;8.114;2023-02-02T03:15:20;5.13;;;1.80;;
75537;SDS011;64121;48.666;8.114;2023-02-02T03:17:47;4.85;;;2.85;;
75537;SDS011;64121;48.666;8.114;2023-02-02T03:20:15;5.70;;;2.03;;
75537;SDS011;64121;48.666;8.114;2023-02-02T03:22:41;4.72;;;2.13;;
75537;SDS011;64121;48.666;8.114;2023-02-02T03:25:07;6.40;;;2.10;;
75537;SDS011;64121;48.666;8.114;2023-02-02T03:27:32;5.22;;;1.90;;
75537;SDS011;64121;48.666;8.114;2023-02-02T03:29:58;8.35;;;2.10;;
75537;SDS011;64121;48.666;8.114;2023-02-02T03:32:24;4.43;;;1.83;;
75537;SDS011;64121;48.666;8.114;2023-02-02T03:34:50;7.13;;;2.15;;
75537;SDS011;64121;48.666;8.114;2023-02-02T03:37:16;8.32;;;2.90;;
75537;SDS011;64121;48.666;8.114;2023-02-02T03:39:41;5.13;;;1.85;;
75537;SDS011;64121;48.666;8.114;2023-02-02T03:42:06;7.40;;;2.00;;
75537;SDS011;64121;48.666;8.114;2023-02-02T03:44:32;5.47;;;2.08;;
75537;SDS011;64121;48.666;8.114;2023-02-02T03:46:57;6.05;;;1.98;;
75537;SDS011;64121;48.666;8.114;2023-02-02T03:49:23;4.72;;;2.00;;
75537;SDS011;64121;48.666;8.114;2023-02-02T03:51:49;6.55;;;2.42;;
75537;SDS011;64121;48.666;8.114;2023-02-02T03:54:15;4.38;;;2.08;;
75537;SDS011;64121;48.666;8.114;2023-02-02T03:56:40;7.32;;;2.38;;
75537;SDS011;64121;48.666;8.114;2023-02-02T03:59:05;7.15;;;2.35;;
75537;SDS011;64121;48.666;8.114;2023-02-02T04:01:31;5.55;;;2.00;;
75537;SDS011;64121;48.666;8.114;2023-02-02T04:03:58;4.32;;;2.00;;
75537;SDS011;64121;48.666;8.114;2023-02-02T04:06:26;5.13;;;1.88;;
75537;SDS011;64121;48.666;8.114;2023-02-02T04:08:55;7.10;;;1.98;;
75537;SDS011;64121;48.666;8.114;2023-02-02T04:11:21;4.38;;;2.10;;
75537;SDS011;64121;48.666;8.114;2023-02-02T04:13:46;7.07;;;1.77;;
75537;SDS011;64121;48.666;8.114;2023-02-02T04:16:11;6.72;;;2.33;;
75537;SDS011;64121;48.666;8.114;2023-02-02T04:18:37;6.28;;;2.38;;
75537;SDS011;64121;48.666;8.114;2023-02-02T04:21:03;6.30;;;1.73;;
75537;SDS011;64121;48.666;8.114;2023-02-02T04:23:29;3.60;;;2.03;;
75537;SDS011;64121;48.666;8.114;2023-02-02T04:25:56;4.05;;;1.92;;
75537;SDS011;64121;48.666;8.114;2023-02-02T04:28:25;5.53;;;2.17;;
75537;SDS011;64121;48.666;8.114;2023-02-02T04:30:52;5.55;;;2.00;;
75537;SDS011;64121;48.666;8.114;2023-02-02T04:33:18;6.50;;;2.35;;
75537;SDS011;64121;48.666;8.114;2023-02-02T04:35:44;7.40;;;2.40;;
75537;SDS011;64121;48.666;8.114;2023-02-02T04:38:12;4.13;;;2.25;;
75537;SDS011;64121;48.666;8.114;2023-02-02T04:40:37;4.47;;;1.50;;
75537;SDS011;64121;48.666;8.114;2023-02-02T04:43:04;4.57;;;1.70;;
75537;SDS011;64121;48.666;8.114;2023-02-02T04:45:30;7.60;;;2.05;;
75537;SDS011;64121;48.666;8.114;2023-02-02T04:47:55;6.07;;;2.08;;
75537;SDS011;64121;48.666;8.114;2023-02-02T04:50:22;6.45;;;2.28;;
75537;SDS011;64121;48.666;8.114;2023-02-02T04:52:48;6.45;;;2.33;;
75537;SDS011;64121;48.666;8.114;2023-02-02T04:55:13;5.00;;;2.45;;
75537;SDS011;64121;48.666;8.114;2023-02-02T04:57:39;4.75;;;1.65;;
75537;SDS011;64121;48.666;8.114;2023-02-02T05:00:10;6.57;;;2.00;;
75537;SDS011;64121;48.666;8.114;2023-02-02T05:02:36;5.35;;;1.73;;
75537;SDS011;64121;48.666;8.114;2023-02-02T05:05:02;4.97;;;2.42;;
75537;SDS011;64121;48.666;8.114;2023-02-02T05:07:28;5.60;;;2.13;;
75537;SDS011;64121;48.666;8.114;2023-02-02T05:09:56;6.05;;;2.00;;
75537;SDS011;64121;48.666;8.114;2023-02-02T05:12:24;6.10;;;2.40;;
75537;SDS011;64121;48.666;8.114;2023-02-02T05:14:49;7.85;;;2.30;;
75537;SDS011;64121;48.666;8.114;2023-02-02T05:17:18;8.90;;;2.40;;
75537;SDS011;64121;48.666;8.114;2023-02-02T05:19:48;2.97;;;1.85;;
75537;SDS011;64121;48.666;8.114;2023-02-02T05:22:14;4.10;;;1.80;;
75537;SDS011;64121;48.666;8.114;2023-02-02T05:24:39;6.20;;;2.17;;
75537;SDS011;64121;48.666;8.114;2023-02-02T05:27:04;3.50;;;2.17;;
75537;SDS011;64121;48.666;8.114;2023-02-02T05:29:30;6.28;;;2.03;;
75537;SDS011;64121;48.666;8.114;2023-02-02T05:31:55;3.83;;;2.15;;
75537;SDS011;64121;48.666;8.114;2023-02-02T05:34:22;6.85;;;2.97;;
75537;SDS011;64121;48.666;8.114;2023-02-02T05:36:48;4.20;;;2.10;;
75537;SDS011;64121;48.666;8.114;2023-02-02T05:39:15;10.45;;;2.50;;
75537;SDS011;64121;48.666;8.114;2023-02-02T05:41:41;4.68;;;3.10;;
75537;SDS011;64121;48.666;8.114;2023-02-02T05:44:07;4.50;;;1.83;;
75537;SDS011;64121;48.666;8.114;2023-02-02T05:46:35;6.47;;;1.88;;
75537;SDS011;64121;48.666;8.114;2023-02-02T05:49:00;4.00;;;2.08;;
75537;SDS011;64121;48.666;8.114;2023-02-02T05:51:27;3.60;;;2.42;;
75537;SDS011;64121;48.666;8.114;2023-02-02T05:53:56;6.35;;;2.30;;
75537;SDS011;64121;48.666;8.114;2023-02-02T05:56:21;5.97;;;2.33;;
75537;SDS011;64121;48.666;8.114;2023-02-02T05:58:49;7.97;;;2.10;;
75537;SDS011;64121;48.666;8.114;2023-02-02T06:01:17;4.00;;;1.98;;
75537;SDS011;64121;48.666;8.114;2023-02-02T06:03:43;6.63;;;2.30;;
75537;SDS011;64121;48.666;8.114;2023-02-02T06:06:08;8.30;;;2.75;;
75537;SDS011;64121;48.666;8.114;2023-02-02T06:08:35;8.10;;;2.30;;
75537;SDS011;64121;48.666;8.114;2023-02-02T06:11:06;7.53;;;2.10;;
75537;SDS011;64121;48.666;8.114;2023-02-02T06:13:34;5.82;;;2.60;;
75537;SDS011;64121;48.666;8.114;2023-02-02T06:16:00;5.15;;;2.40;;
75537;SDS011;64121;48.666;8.114;2023-02-02T06:18:25;6.20;;;2.67;;
75537;SDS011;64121;48.666;8.114;2023-02-02T06:20:54;6.03;;;2.53;;
75537;SDS011;64121;48.666;8.114;2023-02-02T06:23:20;8.30;;;2.75;;
75537;SDS011;64121;48.666;8.114;2023-02-02T06:25:49;6.03;;;3.05;;
75537;SDS011;64121;48.666;8.114;2023-02-02T06:28:15;10.95;;;3.28;;
75537;SDS011;64121;48.666;8.114;2023-02-02T06:30:43;10.13;;;3.50;;
75537;SDS011;64121;48.666;8.114;2023-02-02T06:33:08;5.88;;;2.45;;
75537;SDS011;64121;48.666;8.114;2023-02-02T06:35:34;7.47;;;2.88;;
75537;SDS011;64121;48.666;8.114;2023-02-02T06:37:59;6.50;;;3.03;;
75537;SDS011;64121;48.666;8.114;2023-02-02T06:40:25;6.13;;;2.60;;
75537;SDS011;64121;48.666;8.114;2023-02-02T06:42:55;7.65;;;2.75;;
75537;SDS011;64121;48.666;8.114;2023-02-02T06:45:21;7.32;;;2.97;;
75537;SDS011;64121;48.666;8.114;2023-02-02T06:47:46;4.60;;;2.10;;
75537;SDS011;64121;48.666;8.114;2023-02-02T06:50:11;7.15;;;2.33;;
75537;SDS011;64121;48.666;8.114;2023-02-02T06:52:37;6.72;;;2.83;;
75537;SDS011;64121;48.666;8.114;2023-02-02T06:55:02;6.75;;;2.75;;
75537;SDS011;64121;48.666;8.114;2023-02-02T06:57:28;7.18;;;2.50;;
75537;SDS011;64121;48.666;8.114;2023-02-02T06:59:54;9.77;;;3.08;;
75537;SDS011;64121;48.666;8.114;2023-02-02T07:02:20;8.02;;;2.88;;
75537;SDS011;64121;48.666;8.114;2023-02-02T07:04:45;7.43;;;2.78;;
75537;SDS011;64121;48.666;8.114;2023-02-02T07:07:10;5.25;;;2.92;;
75537;SDS011;64121;48.666;8.114;2023-02-02T07:09:36;6.00;;;2.65;;
75537;SDS011;64121;48.666;8.114;2023-02-02T07:12:01;4.65;;;2.20;;
75537;SDS011;64121;48.666;8.114;2023-02-02T07:14:26;5.95;;;2.55;;
75537;SDS011;64121;48.666;8.114;2023-02-02T07:16:53;7.97;;;2.63;;
75537;SDS011;64121;48.666;8.114;2023-02-02T07:19:18;5.75;;;3.03;;
75537;SDS011;64121;48.666;8.114;2023-02-02T07:21:44;6.93;;;2.30;;
75537;SDS011;64121;48.666;8.114;2023-02-02T07:24:09;10.52;;;3.13;;
75537;SDS011;64121;48.666;8.114;2023-02-02T07:26:34;6.90;;;2.42;;
75537;SDS011;64121;48.666;8.114;2023-02-02T07:29:00;6.45;;;2.03;;
75537;SDS011;64121;48.666;8.114;2023-02-02T07:31:26;6.05;;;2.50;;
75537;SDS011;64121;48.666;8.114;2023-02-02T07:33:52;7.30;;;2.60;;
75537;SDS011;64121;48.666;8.114;2023-02-02T07:36:18;8.00;;;2.25;;
75537;SDS011;64121;48.666;8.114;2023-02-02T07:38:45;4.90;;;2.55;;
75537;SDS011;64121;48.666;8.114;2023-02-02T07:41:12;6.50;;;2.75;;
75537;SDS011;64121;48.666;8.114;2023-02-02T07:43:38;6.65;;;2.85;;
75537;SDS011;64121;48.666;8.114;2023-02-02T07:46:04;6.22;;;2.55;;
75537;SDS011;64121;48.666;8.114;2023-02-02T07:48:31;5.38;;;2.53;;
75537;SDS011;64121;48.666;8.114;2023-02-02T07:50:59;6.32;;;2.55;;
75537;SDS011;64121;48.666;8.114;2023-02-02T07:53:24;5.88;;;2.75;;
75537;SDS011;64121;48.666;8.114;2023-02-02T07:55:49;3.85;;;1.80;;
75537;SDS011;64121;48.666;8.114;2023-02-02T07:58:15;7.53;;;2.63;;
75537;SDS011;64121;48.666;8.114;2023-02-02T08:00:40;6.47;;;2.17;;
75537;SDS011;64121;48.666;8.114;2023-02-02T08:03:05;7.10;;;2.10;;
75537;SDS011;64121;48.666;8.114;2023-02-02T08:05:31;4.32;;;2.13;;
75537;SDS011;64121;48.666;8.114;2023-02-02T08:07:57;7.10;;;2.03;;
75537;SDS011;64121;48.666;8.114;2023-02-02T08:10:23;5.60;;;2.30;;
75537;SDS011;64121;48.666;8.114;2023-02-02T08:12:48;4.78;;;2.67;;
75537;SDS011;64121;48.666;8.114;2023-02-02T08:15:13;4.43;;;1.90;;
75537;SDS011;64121;48.666;8.114;2023-02-02T08:17:39;6.25;;;2.08;;
75537;SDS011;64121;48.666;8.114;2023-02-02T08:20:09;7.47;;;2.05;;
75537;SDS011;64121;48.666;8.114;2023-02-02T08:22:35;7.28;;;2.33;;
75537;SDS011;64121;48.666;8.114;2023-02-02T08:25:02;4.78;;;2.40;;
75537;SDS011;64121;48.666;8.114;2023-02-02T08:27:28;5.28;;;2.78;;
75537;SDS011;64121;48.666;8.114;2023-02-02T08:29:53;7.03;;;2.25;;
75537;SDS011;64121;48.666;8.114;2023-02-02T08:32:18;5.13;;;2.20;;
75537;SDS011;64121;48.666;8.114;2023-02-02T08:34:44;7.32;;;2.55;;
75537;SDS011;64121;48.666;8.114;2023-02-02T08:37:12;6.15;;;2.00;;
75537;SDS011;64121;48.666;8.114;2023-02-02T08:39:37;4.45;;;2.13;;
75537;SDS011;64121;48.666;8.114;2023-02-02T08:42:04;4.95;;;2.00;;
75537;SDS011;64121;48.666;8.114;2023-02-02T08:44:29;6.97;;;2.70;;
75537;SDS011;64121;48.666;8.114;2023-02-02T08:46:55;4.82;;;2.20;;
75537;SDS011;64121;48.666;8.114;2023-02-02T08:49:20;4.80;;;2.40;;
75537;SDS011;64121;48.666;8.114;2023-02-02T08:51:45;5.97;;;2.33;;
75537;SDS011;64121;48.666;8.114;2023-02-02T08:54:11;7.50;;;2.40;;
75537;SDS011;64121;48.666;8.114;2023-02-02T08:56:36;4.68;;;2.10;;
75537;SDS011;64121;48.666;8.114;2023-02-02T08:59:04;4.68;;;2.13;;
75537;SDS011;64121;48.666;8.114;2023-02-02T09:01:30;6.63;;;2.35;;
75537;SDS011;64121;48.666;8.114;2023-02-02T09:03:56;4.40;;;2.25;;
75537;SDS011;64121;48.666;8.114;2023-02-02T09:06:26;5.38;;;2.60;;
75537;SDS011;64121;48.666;8.114;2023-02-02T09:08:53;7.05;;;3.03;;
75537;SDS011;64121;48.666;8.114;2023-02-02T09:11:18;6.50;;;2.67;;
75537;SDS011;64121;48.666;8.114;2023-02-02T09:13:44;10.10;;;2.85;;
75537;SDS011;64121;48.666;8.114;2023-02-02T09:16:13;8.88;;;3.17;;
75537;SDS011;64121;48.666;8.114;2023-02-02T09:18:42;7.03;;;2.38;;
75537;SDS011;64121;48.666;8.114;2023-02-02T09:21:09;9.85;;;2.60;;
75537;SDS011;64121;48.666;8.114;2023-02-02T09:23:36;6.35;;;3.42;;
75537;SDS011;64121;48.666;8.114;2023-02-02T09:26:10;7.93;;;3.00;;
75537;SDS011;64121;48.666;8.114;2023-02-02T09:28:37;7.60;;;3.03;;
75537;SDS011;64121;48.666;8.114;2023-02-02T09:31:03;6.55;;;2.78;;
75537;SDS011;64121;48.666;8.114;2023-02-02T09:33:30;6.25;;;3.10;;
75537;SDS011;64121;48.666;8.114;2023-02-02T09:35:55;5.57;;;2.80;;
75537;SDS011;64121;48.666;8.114;2023-02-02T09:38:27;4.45;;;2.90;;
75537;SDS011;64121;48.666;8.114;2023-02-02T09:40:52;10.38;;;2.97;;
75537;SDS011;64121;48.666;8.114;2023-02-02T09:43:23;9.35;;;3.35;;
75537;SDS011;64121;48.666;8.114;2023-02-02T09:46:02;9.25;;;3.45;;
75537;SDS011;64121;48.666;8.114;2023-02-02T09:48:39;8.85;;;3.30;;
75537;SDS011;64121;48.666;8.114;2023-02-02T09:51:11;9.27;;;3.83;;
75537;SDS011;64121;48.666;8.114;2023-02-02T09:53:41;12.07;;;3.20;;
75537;SDS011;64121;48.666;8.114;2023-02-02T09:56:13;7.18;;;3.05;;
75537;SDS011;64121;48.666;8.114;2023-02-02T09:58:47;6.38;;;3.13;;
75537;SDS011;64121;48.666;8.114;2023-02-02T10:01:15;7.72;;;3.15;;
75537;SDS011;64121;48.666;8.114;2023-02-02T10:03:49;5.72;;;3.55;;
75537;SDS011;64121;48.666;8.114;2023-02-02T10:06:23;6.40;;;2.92;;
75537;SDS011;64121;48.666;8.114;2023-02-02T10:08:58;7.85;;;3.03;;
75537;SDS011;64121;48.666;8.114;2023-02-02T10:11:33;7.07;;;3.03;;
75537;SDS011;64121;48.666;8.114;2023-02-02T10:14:04;6.82;;;3.40;;
75537;SDS011;64121;48.666;8.114;2023-02-02T10:16:35;6.35;;;2.50;;
75537;SDS011;64121;48.666;8.114;2023-02-02T10:19:05;5.80;;;2.70;;
75537;SDS011;64121;48.666;8.114;2023-02-02T10:21:36;4.32;;;2.60;;
75537;SDS011;64121;48.666;8.114;2023-02-02T10:24:07;5.85;;;2.90;;
75537;SDS011;64121;48.666;8.114;2023-02-02T10:29:12;6.45;;;3.25;;
75537;SDS011;64121;48.666;8.114;2023-02-02T10:31:41;4.70;;;2.15;;
75537;SDS011;64121;48.666;8.114;2023-02-02T10:34:15;6.82;;;2.40;;
75537;SDS011;64121;48.666;8.114;2023-02-02T10:36:52;6.45;;;3.03;;
75537;SDS011;64121;48.666;8.114;2023-02-02T10:39:26;8.38;;;3.00;;
75537;SDS011;64121;48.666;8.114;2023-02-02T10:42:05;6.70;;;2.60;;
75537;SDS011;64121;48.666;8.114;2023-02-02T10:44:41;8.15;;;2.88;;
75537;SDS011;64121;48.666;8.114;2023-02-02T10:47:14;5.85;;;2.63;;
75537;SDS011;64121;48.666;8.114;2023-02-02T10:49:49;11.65;;;3.38;;
75537;SDS011;64121;48.666;8.114;2023-02-02T10:52:28;7.05;;;2.78;;
75537;SDS011;64121;48.666;8.114;2023-02-02T10:54:56;5.22;;;2.28;;
75537;SDS011;64121;48.666;8.114;2023-02-02T10:57:33;4.95;;;2.63;;
75537;SDS011;64121;48.666;8.114;2023-02-02T11:00:14;5.80;;;3.03;;
75537;SDS011;64121;48.666;8.114;2023-02-02T11:02:45;4.43;;;2.65;;
75537;SDS011;64121;48.666;8.114;2023-02-02T11:05:15;7.78;;;4.75;;
75537;SDS011;64121;48.666;8.114;2023-02-02T11:07:46;10.82;;;3.10;;
75537;SDS011;64121;48.666;8.114;2023-02-02T11:10:15;7.55;;;2.55;;
75537;SDS011;64121;48.666;8.114;2023-02-02T11:12:46;5.10;;;2.65;;
75537;SDS011;64121;48.666;8.114;2023-02-02T11:15:24;7.72;;;2.75;;
75537;SDS011;64121;48.666;8.114;2023-02-02T11:17:50;4.88;;;2.85;;
75537;SDS011;64121;48.666;8.114;2023-02-02T11:20:22;8.88;;;3.17;;
75537;SDS011;64121;48.666;8.114;2023-02-02T11:23:00;6.90;;;3.17;;
75537;SDS011;64121;48.666;8.114;2023-02-02T11:25:29;4.88;;;2.80;;
75537;SDS011;64121;48.666;8.114;2023-02-02T11:27:56;6.60;;;2.88;;
75537;SDS011;64121;48.666;8.114;2023-02-02T11:30:34;7.00;;;3.55;;
75537;SDS011;64121;48.666;8.114;2023-02-02T11:33:05;9.10;;;3.35;;
75537;SDS011;64121;48.666;8.114;2023-02-02T11:35:52;7.45;;;3.10;;
75537;SDS011;64121;48.666;8.114;2023-02-02T11:38:18;6.97;;;3.00;;
75537;SDS011;64121;48.666;8.114;2023-02-02T11:40:44;4.43;;;2.90;;
75537;SDS011;64121;48.666;8.114;2023-02-02T11:43:17;4.68;;;2.60;;
75537;SDS011;64121;48.666;8.114;2023-02-02T11:45:45;6.30;;;3.05;;
75537;SDS011;64121;48.666;8.114;2023-02-02T11:48:17;8.00;;;3.08;;
75537;SDS011;64121;48.666;8.114;2023-02-02T11:50:49;7.50;;;3.38;;
75537;SDS011;64121;48.666;8.114;2023-02-02T11:53:31;4.93;;;2.72;;
75537;SDS011;64121;48.666;8.114;2023-02-02T11:56:01;7.00;;;3.28;;
75537;SDS011;64121;48.666;8.114;2023-02-02T11:58:41;5.93;;;2.70;;
75537;SDS011;64121;48.666;8.114;2023-02-02T12:01:15;6.15;;;2.78;;
75537;SDS011;64121;48.666;8.114;2023-02-02T12:03:47;6.65;;;2.58;;
75537;SDS011;64121;48.666;8.114;2023-02-02T12:06:17;7.55;;;3.22;;
75537;SDS011;64121;48.666;8.114;2023-02-02T12:08:45;6.97;;;2.88;;
75537;SDS011;64121;48.666;8.114;2023-02-02T12:11:15;8.45;;;3.20;;
75537;SDS011;64121;48.666;8.114;2023-02-02T12:14:01;4.43;;;2.65;;
75537;SDS011;64121;48.666;8.114;2023-02-02T12:16:38;6.40;;;3.00;;
75537;SDS011;64121;48.666;8.114;2023-02-02T12:19:26;10.05;;;3.20;;
75537;SDS011;64121;48.666;8.114;2023-02-02T12:22:02;5.72;;;2.88;;
75537;SDS011;64121;48.666;8.114;2023-02-02T12:24:43;8.88;;;3.13;;
75537;SDS011;64121;48.666;8.114;2023-02-02T12:27:24;6.97;;;3.50;;
75537;SDS011;64121;48.666;8.114;2023-02-02T12:33:11;6.25;;;3.05;;
75537;SDS011;64121;48.666;8.114;2023-02-02T12:35:47;5.80;;;2.28;;
75537;SDS011;64121;48.666;8.114;2023-02-02T12:38:40;5.35;;;2.63;;
75537;SDS011;64121;48.666;8.114;2023-02-02T12:43:54;5.75;;;2.50;;
75537;SDS011;64121;48.666;8.114;2023-02-02T12:46:29;7.93;;;2.83;;
75537;SDS011;64121;48.666;8.114;2023-02-02T12:49:12;6.53;;;2.83;;
75537;SDS011;64121;48.666;8.114;2023-02-02T12:51:58;6.93;;;3.35;;
75537;SDS011;64121;48.666;8.114;2023-02-02T12:54:40;6.63;;;2.53;;
75537;SDS011;64121;48.666;8.114;2023-02-02T12:57:20;6.30;;;2.47;;
75537;SDS011;64121;48.666;8.114;2023-02-02T13:00:02;8.10;;;2.05;;
75537;SDS011;64121;48.666;8.114;2023-02-02T13:02:50;6.35;;;2.00;;
75537;SDS011;64121;48.666;8.114;2023-02-02T13:05:32;7.20;;;2.30;;
75537;SDS011;64121;48.666;8.114;2023-02-02T13:08:13;4.53;;;2.25;;
75537;SDS011;64121;48.666;8.114;2023-02-02T13:10:43;6.63;;;1.75;;
75537;SDS011;64121;48.666;8.114;2023-02-02T13:13:15;7.38;;;1.90;;
75537;SDS011;64121;48.666;8.114;2023-02-02T13:15:43;7.35;;;2.28;;
75537;SDS011;64121;48.666;8.114;2023-02-02T13:18:12;8.68;;;2.03;;
75537;SDS011;64121;48.666;8.114;2023-02-02T13:20:43;7.40;;;2.13;;
75537;SDS011;64121;48.666;8.114;2023-02-02T13:23:21;5.50;;;2.03;;
75537;SDS011;64121;48.666;8.114;2023-02-02T13:25:52;6.38;;;1.80;;
75537;SDS011;64121;48.666;8.114;2023-02-02T13:28:29;5.47;;;1.75;;
75537;SDS011;64121;48.666;8.114;2023-02-02T13:31:00;4.63;;;1.80;;
75537;SDS011;64121;48.666;8.114;2023-02-02T13:33:29;4.85;;;1.48;;
75537;SDS011;64121;48.666;8.114;2023-02-02T13:35:58;4.88;;;1.52;;
75537;SDS011;64121;48.666;8.114;2023-02-02T13:38:26;3.63;;;1.80;;
75537;SDS011;64121;48.666;8.114;2023-02-02T13:40:54;3.60;;;1.90;;
75537;SDS011;64121;48.666;8.114;2023-02-02T13:43:24;4.47;;;1.50;;
75537;SDS011;64121;48.666;8.114;2023-02-02T13:46:05;5.30;;;1.55;;
75537;SDS011;64121;48.666;8.114;2023-02-02T13:48:45;5.35;;;1.70;;
75537;SDS011;64121;48.666;8.114;2023-02-02T13:51:29;4.85;;;1.52;;
75537;SDS011;64121;48.666;8.114;2023-02-02T13:54:21;4.53;;;1.75;;
75537;SDS011;64121;48.666;8.114;2023-02-02T13:57:13;6.10;;;1.90;;
75537;SDS011;64121;48.666;8.114;2023-02-02T13:59:56;5.55;;;2.10;;
75537;SDS011;64121;48.666;8.114;2023-02-02T14:02:29;4.93;;;1.70;;
75537;SDS011;64121;48.666;8.114;2023-02-02T14:04:59;7.80;;;2.17;;
75537;SDS011;64121;48.666;8.114;2023-02-02T14:07:27;5.07;;;2.17;;
75537;SDS011;64121;48.666;8.114;2023-02-02T14:10:00;7.53;;;2.20;;
75537;SDS011;64121;48.666;8.114;2023-02-02T14:12:27;9.82;;;2.35;;
75537;SDS011;64121;48.666;8.114;2023-02-02T14:15:01;5.03;;;1.52;;
75537;SDS011;64121;48.666;8.114;2023-02-02T14:26:18;8.80;;;2.50;;
75537;SDS011;64121;48.666;8.114;2023-02-02T14:29:09;6.00;;;2.33;;
75537;SDS011;64121;48.666;8.114;2023-02-02T14:32:26;6.20;;;2.72;;
75537;SDS011;64121;48.666;8.114;2023-02-02T14:34:55;11.07;;;2.90;;
75537;SDS011;64121;48.666;8.114;2023-02-02T14:37:29;8.73;;;3.65;;
75537;SDS011;64121;48.666;8.114;2023-02-02T14:40:15;6.28;;;2.90;;
75537;SDS011;64121;48.666;8.114;2023-02-02T14:42:50;6.38;;;3.08;;
75537;SDS011;64121;48.666;8.114;2023-02-02T14:45:30;8.15;;;2.85;;
75537;SDS011;64121;48.666;8.114;2023-02-02T14:47:59;6.53;;;3.08;;
75537;SDS011;64121;48.666;8.114;2023-02-02T14:50:33;7.28;;;3.05;;
75537;SDS011;64121;48.666;8.114;2023-02-02T14:53:18;7.60;;;3.28;;
75537;SDS011;64121;48.666;8.114;2023-02-02T14:55:51;5.97;;;3.80;;
75537;SDS011;64121;48.666;8.114;2023-02-02T14:58:22;6.82;;;3.58;;
75537;SDS011;64121;48.666;8.114;2023-02-02T15:00:53;7.70;;;3.38;;
75537;SDS011;64121;48.666;8.114;2023-02-02T15:03:36;5.70;;;3.08;;
75537;SDS011;64121;48.666;8.114;2023-02-02T15:06:12;11.23;;;3.97;;
75537;SDS011;64121;48.666;8.114;2023-02-02T15:14:55;6.10;;;3.47;;
75537;SDS011;64121;48.666;8.114;2023-02-02T15:17:32;6.57;;;3.67;;
75537;SDS011;64121;48.666;8.114;2023-02-02T15:20:11;9.55;;;3.78;;
75537;SDS011;64121;48.666;8.114;2023-02-02T15:22:40;8.25;;;4.03;;
75537;SDS011;64121;48.666;8.114;2023-02-02T15:25:11;9.70;;;4.30;;
75537;SDS011;64121;48.666;8.114;2023-02-02T15:27:43;6.40;;;4.18;;
75537;SDS011;64121;48.666;8.114;2023-02-02T15:30:15;7.50;;;4.13;;